Estación Meteorológica Peña el Pijo (Robertgarden) [ 01/30/23 14:44:55 CET ]

Fecha Hora Presion(HPa) Temp (°C) Humedad % Rocio (°C) Viento ( m/s) Direccion Lluvia 1Hora(mm) Lluvia 24H(mm) LLuvia Total(mm)
2010-Oct-13 01:01:17 999.900 9.1 90 7.6       1.03 169.90
2010-Oct-13 02:01:14 999.900 9.3 90 7.8       1.03 169.90
2010-Oct-13 03:01:41 999.900 9.2 90 7.7       1.03 169.90
2010-Oct-13 04:03:14 1000.200 9.9 88 8.0       1.03 169.90
2010-Oct-13 05:01:13 1000.100 10.9 84 8.3       1.03 169.90
2010-Oct-13 06:01:16 1000.600 10.8 84 8.2       1.03 169.90
2010-Oct-13 07:01:13 1000.700 11.1 84 8.5       1.03 169.90
2010-Oct-13 08:01:17 1001.100 11.3 83 8.5       1.03 169.90
2010-Oct-13 09:01:11 1001.600 11.6 83 8.8       1.03 169.90
2010-Oct-13 10:01:13 1002.800 12.4 81 9.2       1.03 169.90
2010-Oct-13 11:01:12 1003.600 13.4 79 9.8       1.03 169.90
2010-Oct-13 12:01:12 1004.400 13.8 76 9.6       1.03 169.90
2010-Oct-13 13:01:19 1004.500 16.5 68 10.6       1.03 169.90
2010-Oct-13 14:01:14 1004.200 21.3 53 11.3       1.03 169.90
2010-Oct-13 15:01:14 1004.200 20.8 49 9.7       1.03 169.90
2010-Oct-13 16:01:16 1004.500 17.4 57 8.8       1.03 169.90
2010-Oct-13 17:01:15 1005.000 20.0 49 9.0       1.03 169.90
2010-Oct-13 18:01:14 1005.400 18.8 52 8.7       1.03 169.90
2010-Oct-13 19:01:14 1005.800 16.7 59 8.7       1.03 169.90
2010-Oct-13 20:01:11 1006.300 15.4 64 8.6       0.51 169.90
2010-Oct-13 21:01:12 1006.900 13.8 70 8.4       0.51 169.90
2010-Oct-13 22:01:13 1007.200 12.1 77 8.2       0.51 169.90
2010-Oct-13 23:01:16 1007.600 10.4 82 7.4         169.90

Temperatura Máxima:21°    Temperatura Mínima:
Presión Máxima:1007.600 Hpa    Presión Mínima:999.900 Hpa


Volver